createdAt,value
2023-11-12T00:00:13.874Z,17.64
2023-11-12T00:03:15.600Z,17.61
2023-11-12T00:06:17.220Z,17.60
2023-11-12T00:09:18.811Z,17.59
2023-11-12T00:12:23.761Z,17.59
2023-11-12T00:15:25.404Z,17.57
2023-11-12T00:18:27.186Z,17.55
2023-11-12T00:21:28.750Z,17.55
2023-11-12T00:24:30.589Z,17.56
2023-11-12T00:27:32.142Z,17.54
2023-11-12T00:30:33.692Z,17.53
2023-11-12T00:33:35.266Z,17.53
2023-11-12T00:36:39.669Z,17.51
2023-11-12T00:39:41.646Z,17.50
2023-11-12T00:42:43.453Z,17.49
2023-11-12T00:45:47.336Z,17.49
2023-11-12T00:48:48.976Z,17.49
2023-11-12T00:51:50.543Z,17.49
2023-11-12T00:54:52.224Z,17.48
2023-11-12T00:57:53.924Z,17.48
2023-11-12T01:00:55.511Z,17.48
2023-11-12T01:03:57.283Z,17.48
2023-11-12T01:06:58.863Z,17.49
2023-11-12T01:10:00.663Z,17.49
2023-11-12T01:13:02.360Z,17.48
2023-11-12T01:16:04.815Z,17.49
2023-11-12T01:19:06.491Z,17.47
2023-11-12T01:22:08.522Z,17.46
2023-11-12T01:25:10.198Z,17.47
2023-11-12T01:28:12.202Z,17.45
2023-11-12T01:31:14.925Z,17.45
2023-11-12T01:34:16.535Z,17.43
2023-11-12T01:37:18.445Z,17.43
2023-11-12T01:40:21.216Z,17.41
2023-11-12T01:43:22.891Z,17.38
2023-11-12T01:46:26.835Z,17.39
2023-11-12T01:49:28.595Z,17.37
2023-11-12T01:52:31.410Z,17.36
2023-11-12T01:55:34.360Z,17.34
2023-11-12T01:58:36.754Z,17.35
2023-11-12T02:01:39.588Z,17.32
2023-11-12T02:04:42.525Z,17.32
2023-11-12T02:07:44.252Z,17.30
2023-11-12T02:10:49.700Z,17.29
2023-11-12T02:13:51.307Z,17.27
2023-11-12T02:16:53.226Z,17.26
2023-11-12T02:20:03.080Z,17.28
2023-11-12T02:23:04.768Z,17.23
2023-11-12T02:26:06.728Z,17.22
2023-11-12T02:29:08.332Z,17.20
2023-11-12T02:32:10.706Z,17.19
2023-11-12T02:35:14.068Z,17.19
2023-11-12T02:38:15.755Z,17.17
2023-11-12T02:41:19.508Z,17.16
2023-11-12T02:44:23.362Z,17.15
2023-11-12T02:47:26.096Z,17.14
2023-11-12T02:50:31.961Z,17.12
2023-11-12T02:53:33.502Z,17.12
2023-11-12T02:56:35.741Z,17.11
2023-11-12T02:59:37.405Z,17.11
2023-11-12T03:02:39.038Z,17.09
2023-11-12T03:05:40.643Z,17.08
2023-11-12T03:08:42.573Z,17.07
2023-11-12T03:11:44.745Z,17.07
2023-11-12T03:14:46.356Z,17.05
2023-11-12T03:17:47.963Z,17.05
2023-11-12T03:20:49.547Z,17.03
2023-11-12T03:23:51.601Z,17.03
2023-11-12T03:26:54.003Z,17.01
2023-11-12T03:29:55.684Z,17.01
2023-11-12T03:32:57.677Z,17.01
2023-11-12T03:35:59.289Z,17.00
2023-11-12T03:39:00.840Z,16.99
2023-11-12T03:42:02.979Z,16.99
2023-11-12T03:45:05.762Z,16.98
2023-11-12T03:48:11.285Z,16.97
2023-11-12T03:51:13.024Z,16.95
2023-11-12T03:54:14.688Z,16.94
2023-11-12T03:57:17.021Z,16.94
2023-11-12T04:00:18.602Z,16.93
2023-11-12T04:03:20.505Z,16.92
2023-11-12T04:06:22.224Z,16.92
2023-11-12T04:09:24.414Z,16.91
2023-11-12T04:12:26.075Z,16.91
2023-11-12T04:15:27.695Z,16.89
2023-11-12T04:18:29.271Z,16.89
2023-11-12T04:21:31.686Z,16.88
2023-11-12T04:24:33.377Z,16.87
2023-11-12T04:27:36.994Z,16.87
2023-11-12T04:30:38.634Z,16.86
2023-11-12T04:33:40.340Z,16.84
2023-11-12T04:36:41.959Z,16.85
2023-11-12T04:39:44.812Z,16.83
2023-11-12T04:42:49.440Z,16.83
2023-11-12T04:45:51.102Z,16.82
2023-11-12T04:48:53.474Z,16.81
2023-11-12T04:51:55.218Z,16.82
2023-11-12T04:54:56.829Z,16.80
2023-11-12T04:57:58.656Z,16.81
2023-11-12T05:01:00.284Z,16.80
2023-11-12T05:04:01.990Z,16.80
2023-11-12T05:07:03.768Z,16.78
2023-11-12T05:10:09.184Z,16.80
2023-11-12T05:13:10.741Z,16.78
2023-11-12T05:16:12.421Z,16.77
2023-11-12T05:19:14.059Z,16.76
2023-11-12T05:22:18.469Z,16.76
2023-11-12T05:25:21.420Z,16.75
2023-11-12T05:28:24.626Z,16.74
2023-11-12T05:31:27.087Z,16.73
2023-11-12T05:34:28.712Z,16.73
2023-11-12T05:37:30.276Z,16.71
2023-11-12T05:40:31.921Z,16.72
2023-11-12T05:43:33.761Z,16.71
2023-11-12T05:46:35.562Z,16.70
2023-11-12T05:49:37.182Z,16.69
2023-11-12T05:52:38.975Z,16.69
2023-11-12T05:55:40.555Z,16.68
2023-11-12T05:58:42.240Z,16.67
2023-11-12T06:01:44.054Z,16.67
2023-11-12T06:04:45.643Z,16.66
2023-11-12T06:07:47.236Z,16.64
2023-11-12T06:10:49.680Z,16.65
2023-11-12T06:13:51.229Z,16.63
2023-11-12T06:16:52.799Z,16.63
2023-11-12T06:19:54.449Z,16.64
2023-11-12T06:22:57.749Z,16.63
2023-11-12T06:25:59.306Z,16.62
2023-11-12T06:29:00.860Z,16.61
2023-11-12T06:32:03.437Z,16.63
2023-11-12T06:35:05.546Z,16.61
2023-11-12T06:38:07.257Z,16.61
2023-11-12T06:41:11.666Z,16.63
2023-11-12T06:44:13.708Z,16.60
2023-11-12T06:47:16.064Z,16.61
2023-11-12T06:50:17.644Z,16.59
2023-11-12T06:53:19.302Z,16.57
2023-11-12T06:56:21.751Z,16.59
2023-11-12T06:59:24.056Z,16.57
2023-11-12T07:02:25.651Z,16.55
2023-11-12T07:05:31.378Z,16.55
2023-11-12T07:08:33.184Z,16.55
2023-11-12T07:11:34.903Z,16.55
2023-11-12T07:14:36.520Z,16.55
2023-11-12T07:17:38.080Z,16.54
2023-11-12T07:20:40.439Z,16.52
2023-11-12T07:23:42.098Z,16.52
2023-11-12T07:26:45.386Z,16.52
2023-11-12T07:29:47.012Z,16.51
2023-11-12T07:32:48.691Z,16.51
2023-11-12T07:35:50.663Z,16.50
2023-11-12T07:38:52.323Z,16.50
2023-11-12T07:41:53.933Z,16.50
2023-11-12T07:45:03.291Z,16.50
2023-11-12T07:48:11.916Z,16.50
2023-11-12T07:51:13.757Z,16.51
2023-11-12T07:54:15.376Z,16.52
2023-11-12T07:57:16.978Z,16.54
2023-11-12T08:00:20.553Z,16.57
2023-11-12T08:03:23.901Z,16.60
2023-11-12T08:06:27.607Z,16.62
2023-11-12T08:09:29.197Z,16.67
2023-11-12T08:12:30.814Z,16.68
2023-11-12T08:15:32.563Z,16.71
2023-11-12T08:18:34.183Z,16.76
2023-11-12T08:21:35.858Z,16.79
2023-11-12T08:24:38.081Z,16.81
2023-11-12T08:27:39.945Z,16.85
2023-11-12T08:30:41.553Z,16.87
2023-11-12T08:33:43.370Z,16.89
2023-11-12T08:36:44.985Z,16.93
2023-11-12T08:39:46.628Z,16.97
2023-11-12T08:42:48.340Z,16.98
2023-11-12T08:45:49.979Z,16.98
2023-11-12T08:48:51.994Z,17.01
2023-11-12T08:51:53.705Z,17.00
2023-11-12T08:54:55.384Z,17.01
2023-11-12T08:57:57.016Z,17.02
2023-11-12T09:00:58.832Z,17.03
2023-11-12T09:04:00.460Z,17.03
2023-11-12T09:07:02.916Z,17.04
2023-11-12T09:10:07.971Z,17.05
2023-11-12T09:13:10.615Z,17.05
2023-11-12T09:16:12.261Z,17.06
2023-11-12T09:19:14.755Z,17.07
2023-11-12T09:22:16.367Z,17.08
2023-11-12T09:25:18.647Z,17.09
2023-11-12T09:28:20.707Z,17.10
2023-11-12T09:31:23.080Z,17.11
2023-11-12T09:34:24.693Z,17.09
2023-11-12T09:37:26.279Z,17.10
2023-11-12T09:40:32.381Z,17.11
2023-11-12T09:43:34.517Z,17.09
2023-11-12T09:46:36.492Z,17.09
2023-11-12T09:49:38.137Z,17.09
2023-11-12T09:52:39.797Z,17.09
2023-11-12T09:55:41.433Z,17.09
2023-11-12T09:58:46.505Z,17.11
2023-11-12T10:01:49.710Z,17.10
2023-11-12T10:04:59.595Z,17.11
2023-11-12T10:08:01.433Z,17.09
2023-11-12T10:11:22.838Z,17.13
2023-11-12T10:14:24.710Z,17.10
2023-11-12T10:17:26.805Z,17.09
2023-11-12T10:20:36.474Z,17.10
2023-11-12T10:23:38.027Z,17.09
2023-11-12T10:26:39.797Z,17.09
2023-11-12T10:29:44.332Z,17.11
2023-11-12T10:32:45.927Z,17.08
2023-11-12T10:35:48.719Z,17.08
2023-11-12T10:38:50.944Z,17.06
2023-11-12T10:41:52.496Z,17.07
2023-11-12T10:45:00.372Z,17.10
2023-11-12T10:48:07.319Z,17.10
2023-11-12T10:51:11.524Z,17.10
2023-11-12T10:54:15.109Z,17.11
2023-11-12T10:57:19.786Z,17.12
2023-11-12T11:00:23.379Z,17.12
2023-11-12T11:03:27.594Z,17.14
2023-11-12T11:06:30.492Z,17.12
2023-11-12T11:09:32.194Z,17.11
2023-11-12T11:12:34.498Z,17.11
2023-11-12T11:15:46.632Z,17.15
2023-11-12T11:18:50.270Z,17.11
2023-11-12T11:22:33.038Z,17.15
2023-11-12T11:25:34.620Z,17.12
2023-11-12T11:28:36.197Z,17.13
2023-11-12T11:31:41.157Z,17.14
2023-11-12T11:34:43.718Z,17.15
2023-11-12T11:38:07.176Z,17.18
2023-11-12T11:41:09.605Z,17.14
2023-11-12T11:44:40.092Z,17.17
2023-11-12T11:48:04.603Z,17.17
2023-11-12T11:51:28.736Z,17.17
2023-11-12T11:54:30.779Z,17.15
2023-11-12T11:57:32.850Z,17.15
2023-11-12T12:00:34.712Z,17.16
2023-11-12T12:03:37.082Z,17.16
2023-11-12T12:06:43.693Z,17.21
2023-11-12T12:09:45.440Z,17.19
2023-11-12T12:12:47.100Z,17.20
2023-11-12T12:15:50.091Z,17.21
2023-11-12T12:18:51.788Z,17.22
2023-11-12T12:21:53.857Z,17.22
2023-11-12T12:24:57.155Z,17.21
2023-11-12T12:27:58.825Z,17.21
2023-11-12T12:31:00.548Z,17.20
2023-11-12T12:34:05.950Z,17.20
2023-11-12T12:37:10.848Z,17.21
2023-11-12T12:40:16.483Z,17.20
2023-11-12T12:43:18.242Z,17.21
2023-11-12T12:46:23.631Z,17.22
2023-11-12T12:49:33.634Z,17.25
2023-11-12T12:52:35.498Z,17.22
2023-11-12T12:55:38.470Z,17.22
2023-11-12T12:58:41.246Z,17.25
2023-11-12T13:01:45.692Z,17.27
2023-11-12T13:04:51.045Z,17.28
2023-11-12T13:07:54.292Z,17.29
2023-11-12T13:10:55.954Z,17.31
2023-11-12T13:13:58.639Z,17.33
2023-11-12T13:17:02.270Z,17.38
2023-11-12T13:20:07.953Z,17.41
2023-11-12T13:23:09.484Z,17.44
2023-11-12T13:26:12.827Z,17.47
2023-11-12T13:29:14.789Z,17.50
2023-11-12T13:32:16.860Z,17.54
2023-11-12T13:35:18.505Z,17.56
2023-11-12T13:38:20.244Z,17.57
2023-11-12T13:41:22.950Z,17.58
2023-11-12T13:44:25.930Z,17.57
2023-11-12T13:47:28.104Z,17.58
2023-11-12T13:50:29.942Z,17.57
2023-11-12T13:53:31.599Z,17.59
2023-11-12T13:56:36.278Z,17.62
2023-11-12T13:59:38.024Z,17.63
2023-11-12T14:02:41.363Z,17.67
2023-11-12T14:05:45.084Z,17.68
2023-11-12T14:08:47.796Z,17.71
2023-11-12T14:11:51.907Z,17.72
2023-11-12T14:14:53.836Z,17.71
2023-11-12T14:17:55.760Z,17.60
2023-11-12T14:20:57.339Z,17.59
2023-11-12T14:24:00.148Z,17.62
2023-11-12T14:27:03.387Z,17.63
2023-11-12T14:30:14.185Z,17.67
2023-11-12T14:33:18.838Z,17.67
2023-11-12T14:36:20.460Z,17.69
2023-11-12T14:39:24.379Z,17.69
2023-11-12T14:42:26.116Z,17.72
2023-11-12T14:45:30.959Z,17.75
2023-11-12T14:48:36.212Z,17.77
2023-11-12T14:51:41.968Z,17.78
2023-11-12T14:54:44.008Z,17.77
2023-11-12T14:57:46.174Z,17.79
2023-11-12T15:00:48.630Z,17.78
2023-11-12T15:03:50.517Z,17.79
2023-11-12T15:06:55.533Z,17.78
2023-11-12T15:09:57.684Z,17.79
2023-11-12T15:12:59.394Z,17.79
2023-11-12T15:16:01.119Z,17.80
2023-11-12T15:19:02.930Z,17.81
2023-11-12T15:22:04.730Z,17.85
2023-11-12T15:25:06.608Z,17.86
2023-11-12T15:28:08.291Z,17.88
2023-11-12T15:31:13.906Z,17.92
2023-11-12T15:34:15.612Z,17.92
2023-11-12T15:37:19.287Z,17.92
2023-11-12T15:40:23.891Z,17.93
2023-11-12T15:43:25.856Z,17.91
2023-11-12T15:46:27.578Z,17.91
2023-11-12T15:49:29.943Z,17.90
2023-11-12T15:52:31.842Z,17.88
2023-11-12T15:55:33.607Z,17.87
2023-11-12T15:58:35.171Z,17.87
2023-11-12T16:01:38.082Z,17.84
2023-11-12T16:04:40.427Z,17.83
2023-11-12T16:07:43.591Z,17.84
2023-11-12T16:10:45.150Z,17.81
2023-11-12T16:13:47.783Z,17.81
2023-11-12T16:16:49.405Z,17.82
2023-11-12T16:19:51.025Z,17.81
2023-11-12T16:22:52.972Z,17.80
2023-11-12T16:25:55.220Z,17.80
2023-11-12T16:28:56.846Z,17.79
2023-11-12T16:32:10.047Z,17.82
2023-11-12T16:35:12.164Z,17.79
2023-11-12T16:38:14.506Z,17.79
2023-11-12T16:41:16.133Z,17.79
2023-11-12T16:44:19.272Z,17.78
2023-11-12T16:47:24.831Z,17.79
2023-11-12T16:50:27.055Z,17.80
2023-11-12T16:53:28.726Z,17.79
2023-11-12T16:56:30.288Z,17.80
2023-11-12T16:59:32.266Z,17.80
2023-11-12T17:02:36.465Z,17.78
2023-11-12T17:05:38.978Z,17.77
2023-11-12T17:08:40.573Z,17.77
2023-11-12T17:11:44.734Z,17.76
2023-11-12T17:14:46.277Z,17.75
2023-11-12T17:17:49.552Z,17.77
2023-11-12T17:20:51.489Z,17.76
2023-11-12T17:23:53.481Z,17.74
2023-11-12T17:26:56.112Z,17.76
2023-11-12T17:29:57.756Z,17.76
2023-11-12T17:32:59.444Z,17.75
2023-11-12T17:36:01.042Z,17.76
2023-11-12T17:39:02.948Z,17.75
2023-11-12T17:42:04.775Z,17.75
2023-11-12T17:45:07.395Z,17.75
2023-11-12T17:48:09.395Z,17.74
2023-11-12T17:51:11.150Z,17.74
2023-11-12T17:54:12.780Z,17.75
2023-11-12T17:57:15.532Z,17.74
2023-11-12T18:00:19.156Z,17.78
2023-11-12T18:03:23.014Z,17.81
2023-11-12T18:06:24.650Z,17.84
2023-11-12T18:09:26.223Z,17.86
2023-11-12T18:12:27.972Z,17.88
2023-11-12T18:15:30.675Z,17.90
2023-11-12T18:18:32.337Z,17.91
2023-11-12T18:21:34.029Z,17.91
2023-11-12T18:24:35.782Z,17.92
2023-11-12T18:27:37.381Z,17.93
2023-11-12T18:30:48.674Z,17.95
2023-11-12T18:33:51.696Z,17.97
2023-11-12T18:36:53.299Z,18.00
2023-11-12T18:39:54.938Z,18.01
2023-11-12T18:42:57.135Z,18.02
2023-11-12T18:46:02.069Z,18.05
2023-11-12T18:49:03.768Z,18.06
2023-11-12T18:52:05.472Z,18.07
2023-11-12T18:55:08.817Z,18.04
2023-11-12T18:58:10.630Z,18.03
2023-11-12T19:01:15.205Z,18.05
2023-11-12T19:04:17.841Z,18.06
2023-11-12T19:07:19.594Z,18.07
2023-11-12T19:10:23.864Z,18.10
2023-11-12T19:13:25.672Z,18.10
2023-11-12T19:16:28.356Z,18.12
2023-11-12T19:19:31.017Z,18.11
2023-11-12T19:22:33.365Z,18.09
2023-11-12T19:25:35.495Z,18.05
2023-11-12T19:28:37.010Z,18.05
2023-11-12T19:31:38.885Z,18.05
2023-11-12T19:34:40.581Z,18.06
2023-11-12T19:37:42.385Z,18.06
2023-11-12T19:40:46.829Z,18.07
2023-11-12T19:43:48.504Z,18.09
2023-11-12T19:46:50.128Z,18.10
2023-11-12T19:49:52.711Z,18.10
2023-11-12T19:52:54.301Z,18.12
2023-11-12T19:55:57.285Z,18.12
2023-11-12T19:59:01.337Z,18.12
2023-11-12T20:02:03.320Z,18.14
2023-11-12T20:05:06.628Z,18.16
2023-11-12T20:08:08.857Z,18.16
2023-11-12T20:11:10.511Z,18.17
2023-11-12T20:14:12.036Z,18.19
2023-11-12T20:17:15.209Z,18.20
2023-11-12T20:20:18.932Z,18.24
2023-11-12T20:23:21.968Z,18.25
2023-11-12T20:26:23.576Z,18.25
2023-11-12T20:29:25.165Z,18.27
2023-11-12T20:32:28.906Z,18.29
2023-11-12T20:35:30.750Z,18.27
2023-11-12T20:38:35.880Z,18.29
2023-11-12T20:41:39.611Z,18.30
2023-11-12T20:44:42.162Z,18.31
2023-11-12T20:47:45.640Z,18.33
2023-11-12T20:50:47.360Z,18.34
2023-11-12T20:53:48.941Z,18.35
2023-11-12T20:56:51.877Z,18.39
2023-11-12T20:59:53.681Z,18.38
2023-11-12T21:02:55.376Z,18.40
2023-11-12T21:05:56.968Z,18.43
2023-11-12T21:08:59.537Z,18.44
2023-11-12T21:12:07.058Z,18.42
2023-11-12T21:15:11.854Z,18.44
2023-11-12T21:18:13.597Z,18.43
2023-11-12T21:21:16.685Z,18.42
2023-11-12T21:24:18.239Z,18.42
2023-11-12T21:27:20.205Z,18.42
2023-11-12T21:30:26.553Z,18.43
2023-11-12T21:33:28.561Z,18.43
2023-11-12T21:36:30.102Z,18.46
2023-11-12T21:39:31.694Z,18.47
2023-11-12T21:42:33.324Z,18.47
2023-11-12T21:45:34.967Z,18.49
2023-11-12T21:48:38.685Z,18.49
2023-11-12T21:51:41.326Z,18.49
2023-11-12T21:54:42.963Z,18.49
2023-11-12T21:57:44.549Z,18.49
2023-11-12T22:00:46.220Z,18.50
2023-11-12T22:03:48.033Z,18.50
2023-11-12T22:06:49.952Z,18.49
2023-11-12T22:09:51.669Z,18.47
2023-11-12T22:12:56.381Z,18.49
2023-11-12T22:15:58.088Z,18.47
2023-11-12T22:18:59.877Z,18.47
2023-11-12T22:22:02.014Z,18.47
2023-11-12T22:25:11.629Z,18.47
2023-11-12T22:28:15.947Z,18.47
2023-11-12T22:31:17.696Z,18.46
2023-11-12T22:34:21.456Z,18.45
2023-11-12T22:37:23.394Z,18.44
2023-11-12T22:40:25.814Z,18.45
2023-11-12T22:43:27.498Z,18.44
2023-11-12T22:46:29.192Z,18.43
2023-11-12T22:49:30.793Z,18.42
2023-11-12T22:52:32.321Z,18.41
2023-11-12T22:55:34.214Z,18.40
2023-11-12T22:58:36.306Z,18.40
2023-11-12T23:01:38.149Z,18.38
2023-11-12T23:04:40.178Z,18.36
2023-11-12T23:07:43.374Z,18.34
2023-11-12T23:10:45.900Z,18.34
2023-11-12T23:13:47.511Z,18.31
2023-11-12T23:16:49.624Z,18.31
2023-11-12T23:19:52.260Z,18.30
2023-11-12T23:22:53.854Z,18.29
2023-11-12T23:25:55.557Z,18.27
2023-11-12T23:28:57.146Z,18.28
2023-11-12T23:31:58.764Z,18.25
2023-11-12T23:35:00.419Z,18.24
2023-11-12T23:38:02.202Z,18.22
2023-11-12T23:41:04.825Z,18.20
2023-11-12T23:44:06.410Z,18.19
2023-11-12T23:47:08.430Z,18.19
2023-11-12T23:50:10.921Z,18.17
2023-11-12T23:53:12.667Z,18.15
2023-11-12T23:56:17.739Z,18.17
2023-11-12T23:59:19.372Z,18.14
